Silver Bell, Arizona
Current Conditions -  °F | °C
As of 12:35 AM on Saturday 29 Nov 2014 (Local Time) from KAVQ Reporting Station
Clear Clear  
Wind Chill: 58°   Ceiling: Unl
Heat Index: 58°   Visibility: 10mi
Dew Point: 21°   Wind: 12mph
Humidity: 24%   Direction: 100°E
Pressure: 29.96"   Gusts: NA
Location:  32.38°N, 111.5°W
Report Text: KAVQ 290735Z AUTO 10010KT 10SM CLR 15/M06 A2996 RMK AO2 T01461060
Loading
Personal Weather Stations






























Interactive Weather Map New forecast layout! Learn more

10-Day Weather Forecast

Advertisements
Track Severe Weather on mobile